sensor_id;sensor_type;location;lat;lon;timestamp;pressure;altitude;pressure_sealevel;temperature
69597;BMP180;56802;51.184;-115.558;2022-10-31T00:01:40;85297.60;;;6.10
69597;BMP180;56802;51.184;-115.558;2022-10-31T00:04:10;85283.60;;;6.10
69597;BMP180;56802;51.184;-115.558;2022-10-31T00:06:39;85280.40;;;6.10
69597;BMP180;56802;51.184;-115.558;2022-10-31T00:09:10;85284.80;;;6.16
69597;BMP180;56802;51.184;-115.558;2022-10-31T00:11:40;85289.80;;;6.18
69597;BMP180;56802;51.184;-115.558;2022-10-31T00:14:09;85284.20;;;6.20
69597;BMP180;56802;51.184;-115.558;2022-10-31T00:16:38;85289.00;;;6.20
69597;BMP180;56802;51.184;-115.558;2022-10-31T00:19:10;85287.60;;;6.20
69597;BMP180;56802;51.184;-115.558;2022-10-31T00:21:39;85272.00;;;6.20
69597;BMP180;56802;51.184;-115.558;2022-10-31T00:24:10;85273.00;;;6.22
69597;BMP180;56802;51.184;-115.558;2022-10-31T00:26:39;85272.80;;;6.28
69597;BMP180;56802;51.184;-115.558;2022-10-31T00:29:08;85280.60;;;6.30
69597;BMP180;56802;51.184;-115.558;2022-10-31T00:31:37;85269.60;;;6.30
69597;BMP180;56802;51.184;-115.558;2022-10-31T00:34:07;85261.60;;;6.30
69597;BMP180;56802;51.184;-115.558;2022-10-31T00:36:36;85271.60;;;6.32
69597;BMP180;56802;51.184;-115.558;2022-10-31T00:39:06;85271.20;;;6.40
69597;BMP180;56802;51.184;-115.558;2022-10-31T00:41:35;85273.00;;;6.40
69597;BMP180;56802;51.184;-115.558;2022-10-31T00:44:04;85266.40;;;6.40
69597;BMP180;56802;51.184;-115.558;2022-10-31T00:46:33;85270.60;;;6.40
69597;BMP180;56802;51.184;-115.558;2022-10-31T00:49:03;85287.60;;;6.38
69597;BMP180;56802;51.184;-115.558;2022-10-31T00:51:32;85291.00;;;6.36
69597;BMP180;56802;51.184;-115.558;2022-10-31T00:54:02;85294.40;;;6.30
69597;BMP180;56802;51.184;-115.558;2022-10-31T00:56:31;85297.60;;;6.30
69597;BMP180;56802;51.184;-115.558;2022-10-31T00:59:00;85293.80;;;6.30
69597;BMP180;56802;51.184;-115.558;2022-10-31T01:01:30;85291.60;;;6.24
69597;BMP180;56802;51.184;-115.558;2022-10-31T01:03:59;85295.20;;;6.20
69597;BMP180;56802;51.184;-115.558;2022-10-31T01:06:28;85289.60;;;6.20
69597;BMP180;56802;51.184;-115.558;2022-10-31T01:08:57;85298.40;;;6.10
69597;BMP180;56802;51.184;-115.558;2022-10-31T01:11:26;85283.20;;;6.10
69597;BMP180;56802;51.184;-115.558;2022-10-31T01:13:55;85282.20;;;6.10
69597;BMP180;56802;51.184;-115.558;2022-10-31T01:16:27;85279.40;;;6.10
69597;BMP180;56802;51.184;-115.558;2022-10-31T01:18:58;85281.20;;;6.10
69597;BMP180;56802;51.184;-115.558;2022-10-31T01:21:28;85282.40;;;6.10
69597;BMP180;56802;51.184;-115.558;2022-10-31T01:23:57;85279.00;;;6.10
69597;BMP180;56802;51.184;-115.558;2022-10-31T01:26:30;85277.00;;;6.10
69597;BMP180;56802;51.184;-115.558;2022-10-31T01:29:07;85295.20;;;6.10
69597;BMP180;56802;51.184;-115.558;2022-10-31T01:31:39;85288.00;;;6.10
69597;BMP180;56802;51.184;-115.558;2022-10-31T01:34:16;85284.80;;;6.10
69597;BMP180;56802;51.184;-115.558;2022-10-31T01:36:47;85282.20;;;6.10
69597;BMP180;56802;51.184;-115.558;2022-10-31T01:39:19;85288.60;;;6.10
69597;BMP180;56802;51.184;-115.558;2022-10-31T01:41:52;85281.80;;;6.02
69597;BMP180;56802;51.184;-115.558;2022-10-31T01:47:15;85286.60;;;6.00
69597;BMP180;56802;51.184;-115.558;2022-10-31T01:49:57;85292.00;;;6.00
69597;BMP180;56802;51.184;-115.558;2022-10-31T01:53:06;85296.20;;;5.90
69597;BMP180;56802;51.184;-115.558;2022-10-31T01:55:36;85296.20;;;5.90
69597;BMP180;56802;51.184;-115.558;2022-10-31T01:58:15;85298.40;;;5.90
69597;BMP180;56802;51.184;-115.558;2022-10-31T02:00:56;85298.00;;;5.90
69597;BMP180;56802;51.184;-115.558;2022-10-31T02:03:32;85296.00;;;5.90
69597;BMP180;56802;51.184;-115.558;2022-10-31T02:06:10;85293.40;;;5.90
69597;BMP180;56802;51.184;-115.558;2022-10-31T02:08:42;85296.00;;;5.90
69597;BMP180;56802;51.184;-115.558;2022-10-31T02:11:12;85296.20;;;5.90
69597;BMP180;56802;51.184;-115.558;2022-10-31T02:13:42;85286.80;;;5.90
69597;BMP180;56802;51.184;-115.558;2022-10-31T02:16:11;85285.80;;;5.86
69597;BMP180;56802;51.184;-115.558;2022-10-31T02:18:40;85289.40;;;5.80
69597;BMP180;56802;51.184;-115.558;2022-10-31T02:21:42;85285.60;;;5.80
69597;BMP180;56802;51.184;-115.558;2022-10-31T02:25:02;85291.60;;;5.80
69597;BMP180;56802;51.184;-115.558;2022-10-31T02:31:25;85293.60;;;5.80
69597;BMP180;56802;51.184;-115.558;2022-10-31T02:40:27;85295.60;;;5.78
69597;BMP180;56802;51.184;-115.558;2022-10-31T02:46:23;85309.60;;;5.80
69597;BMP180;56802;51.184;-115.558;2022-10-31T02:49:00;85312.20;;;5.80
69597;BMP180;56802;51.184;-115.558;2022-10-31T02:51:30;85307.80;;;5.80
69597;BMP180;56802;51.184;-115.558;2022-10-31T02:53:59;85304.20;;;5.80
69597;BMP180;56802;51.184;-115.558;2022-10-31T02:56:28;85302.20;;;5.80
69597;BMP180;56802;51.184;-115.558;2022-10-31T02:59:02;85305.60;;;5.80
69597;BMP180;56802;51.184;-115.558;2022-10-31T03:01:47;85312.80;;;5.80
69597;BMP180;56802;51.184;-115.558;2022-10-31T03:04:41;85306.80;;;5.80
69597;BMP180;56802;51.184;-115.558;2022-10-31T03:10:53;85297.60;;;5.80
69597;BMP180;56802;51.184;-115.558;2022-10-31T03:14:04;85304.00;;;5.80
69597;BMP180;56802;51.184;-115.558;2022-10-31T03:16:50;85312.20;;;5.76
69597;BMP180;56802;51.184;-115.558;2022-10-31T03:19:41;85308.20;;;5.70
69597;BMP180;56802;51.184;-115.558;2022-10-31T03:22:25;85298.40;;;5.70
69597;BMP180;56802;51.184;-115.558;2022-10-31T03:24:56;85300.60;;;5.70
69597;BMP180;56802;51.184;-115.558;2022-10-31T03:27:30;85306.60;;;5.70
69597;BMP180;56802;51.184;-115.558;2022-10-31T03:30:05;85306.20;;;5.70
69597;BMP180;56802;51.184;-115.558;2022-10-31T03:32:44;85309.40;;;5.70
69597;BMP180;56802;51.184;-115.558;2022-10-31T03:35:19;85311.00;;;5.70
69597;BMP180;56802;51.184;-115.558;2022-10-31T03:37:51;85320.00;;;5.70
69597;BMP180;56802;51.184;-115.558;2022-10-31T03:40:24;85319.40;;;5.70
69597;BMP180;56802;51.184;-115.558;2022-10-31T03:43:06;85319.80;;;5.70
69597;BMP180;56802;51.184;-115.558;2022-10-31T03:45:45;85316.20;;;5.72
69597;BMP180;56802;51.184;-115.558;2022-10-31T03:48:17;85315.00;;;5.80
69597;BMP180;56802;51.184;-115.558;2022-10-31T03:53:50;85318.40;;;5.80
69597;BMP180;56802;51.184;-115.558;2022-10-31T03:56:37;85319.80;;;5.80
69597;BMP180;56802;51.184;-115.558;2022-10-31T03:59:15;85317.00;;;5.80
69597;BMP180;56802;51.184;-115.558;2022-10-31T04:01:50;85314.00;;;5.80
69597;BMP180;56802;51.184;-115.558;2022-10-31T04:04:21;85325.20;;;5.80
69597;BMP180;56802;51.184;-115.558;2022-10-31T04:06:52;85322.60;;;5.80
69597;BMP180;56802;51.184;-115.558;2022-10-31T04:09:24;85332.00;;;5.80
69597;BMP180;56802;51.184;-115.558;2022-10-31T04:11:57;85326.20;;;5.80
69597;BMP180;56802;51.184;-115.558;2022-10-31T04:14:31;85322.40;;;5.80
69597;BMP180;56802;51.184;-115.558;2022-10-31T04:17:07;85321.40;;;5.80
69597;BMP180;56802;51.184;-115.558;2022-10-31T04:19:36;85316.00;;;5.80
69597;BMP180;56802;51.184;-115.558;2022-10-31T04:22:06;85312.40;;;5.80
69597;BMP180;56802;51.184;-115.558;2022-10-31T04:24:39;85315.00;;;5.80
69597;BMP180;56802;51.184;-115.558;2022-10-31T04:27:09;85314.40;;;5.90
69597;BMP180;56802;51.184;-115.558;2022-10-31T04:29:38;85313.20;;;5.88
69597;BMP180;56802;51.184;-115.558;2022-10-31T04:32:11;85318.20;;;5.82
69597;BMP180;56802;51.184;-115.558;2022-10-31T04:34:41;85314.80;;;5.80
69597;BMP180;56802;51.184;-115.558;2022-10-31T04:37:10;85319.80;;;5.80
69597;BMP180;56802;51.184;-115.558;2022-10-31T04:39:40;85322.40;;;5.80
69597;BMP180;56802;51.184;-115.558;2022-10-31T04:42:09;85319.80;;;5.78
69597;BMP180;56802;51.184;-115.558;2022-10-31T04:44:38;85318.80;;;5.70
69597;BMP180;56802;51.184;-115.558;2022-10-31T04:47:07;85315.80;;;5.70
69597;BMP180;56802;51.184;-115.558;2022-10-31T04:49:36;85321.40;;;5.70
69597;BMP180;56802;51.184;-115.558;2022-10-31T04:52:07;85322.20;;;5.70
69597;BMP180;56802;51.184;-115.558;2022-10-31T04:54:36;85320.40;;;5.70
69597;BMP180;56802;51.184;-115.558;2022-10-31T04:57:05;85325.40;;;5.70
69597;BMP180;56802;51.184;-115.558;2022-10-31T04:59:35;85332.20;;;5.70
69597;BMP180;56802;51.184;-115.558;2022-10-31T05:02:04;85333.40;;;5.70
69597;BMP180;56802;51.184;-115.558;2022-10-31T05:04:33;85327.60;;;5.80
69597;BMP180;56802;51.184;-115.558;2022-10-31T05:07:03;85329.60;;;5.80
69597;BMP180;56802;51.184;-115.558;2022-10-31T05:09:32;85331.80;;;5.80
69597;BMP180;56802;51.184;-115.558;2022-10-31T05:12:02;85327.20;;;5.80
69597;BMP180;56802;51.184;-115.558;2022-10-31T05:14:31;85332.60;;;5.80
69597;BMP180;56802;51.184;-115.558;2022-10-31T05:17:00;85333.40;;;5.80
69597;BMP180;56802;51.184;-115.558;2022-10-31T05:19:29;85333.00;;;5.78
69597;BMP180;56802;51.184;-115.558;2022-10-31T05:22:01;85327.80;;;5.70
69597;BMP180;56802;51.184;-115.558;2022-10-31T05:24:30;85335.00;;;5.70
69597;BMP180;56802;51.184;-115.558;2022-10-31T05:26:59;85341.20;;;5.70
69597;BMP180;56802;51.184;-115.558;2022-10-31T05:29:28;85341.80;;;5.70
69597;BMP180;56802;51.184;-115.558;2022-10-31T05:32:01;85338.60;;;5.70
69597;BMP180;56802;51.184;-115.558;2022-10-31T05:34:30;85342.00;;;5.70
69597;BMP180;56802;51.184;-115.558;2022-10-31T05:36:59;85346.00;;;5.70
69597;BMP180;56802;51.184;-115.558;2022-10-31T05:39:29;85343.80;;;5.70
69597;BMP180;56802;51.184;-115.558;2022-10-31T05:41:57;85341.00;;;5.70
69597;BMP180;56802;51.184;-115.558;2022-10-31T05:44:27;85343.00;;;5.70
69597;BMP180;56802;51.184;-115.558;2022-10-31T05:46:56;85339.20;;;5.70
69597;BMP180;56802;51.184;-115.558;2022-10-31T05:49:28;85333.40;;;5.70
69597;BMP180;56802;51.184;-115.558;2022-10-31T05:51:57;85343.60;;;5.70
69597;BMP180;56802;51.184;-115.558;2022-10-31T05:54:27;85342.80;;;5.66
69597;BMP180;56802;51.184;-115.558;2022-10-31T05:56:56;85334.60;;;5.60
69597;BMP180;56802;51.184;-115.558;2022-10-31T05:59:25;85338.00;;;5.62
69597;BMP180;56802;51.184;-115.558;2022-10-31T06:01:54;85335.80;;;5.70
69597;BMP180;56802;51.184;-115.558;2022-10-31T06:04:24;85329.40;;;5.64
69597;BMP180;56802;51.184;-115.558;2022-10-31T06:06:53;85318.20;;;5.60
69597;BMP180;56802;51.184;-115.558;2022-10-31T06:09:23;85330.80;;;5.60
69597;BMP180;56802;51.184;-115.558;2022-10-31T06:11:52;85331.80;;;5.60
69597;BMP180;56802;51.184;-115.558;2022-10-31T06:14:21;85332.00;;;5.60
69597;BMP180;56802;51.184;-115.558;2022-10-31T06:16:51;85330.80;;;5.60
69597;BMP180;56802;51.184;-115.558;2022-10-31T06:19:20;85337.00;;;5.60
69597;BMP180;56802;51.184;-115.558;2022-10-31T06:21:50;85325.40;;;5.60
69597;BMP180;56802;51.184;-115.558;2022-10-31T06:24:19;85330.20;;;5.50
69597;BMP180;56802;51.184;-115.558;2022-10-31T06:26:48;85331.00;;;5.50
69597;BMP180;56802;51.184;-115.558;2022-10-31T06:29:17;85332.60;;;5.50
69597;BMP180;56802;51.184;-115.558;2022-10-31T06:31:47;85324.60;;;5.50
69597;BMP180;56802;51.184;-115.558;2022-10-31T06:34:16;85324.60;;;5.50
69597;BMP180;56802;51.184;-115.558;2022-10-31T06:36:49;85323.20;;;5.50
69597;BMP180;56802;51.184;-115.558;2022-10-31T06:39:18;85330.60;;;5.50
69597;BMP180;56802;51.184;-115.558;2022-10-31T06:41:50;85339.60;;;5.50
69597;BMP180;56802;51.184;-115.558;2022-10-31T06:44:19;85334.00;;;5.42
69597;BMP180;56802;51.184;-115.558;2022-10-31T06:46:49;85328.80;;;5.48
69597;BMP180;56802;51.184;-115.558;2022-10-31T06:49:18;85326.20;;;5.46
69597;BMP180;56802;51.184;-115.558;2022-10-31T06:51:50;85329.40;;;5.40
69597;BMP180;56802;51.184;-115.558;2022-10-31T06:54:20;85330.40;;;5.44
69597;BMP180;56802;51.184;-115.558;2022-10-31T06:56:50;85332.00;;;5.50
69597;BMP180;56802;51.184;-115.558;2022-10-31T06:59:19;85323.00;;;5.48
69597;BMP180;56802;51.184;-115.558;2022-10-31T07:01:48;85321.00;;;5.40
69597;BMP180;56802;51.184;-115.558;2022-10-31T07:04:19;85326.80;;;5.40
69597;BMP180;56802;51.184;-115.558;2022-10-31T07:06:51;85325.20;;;5.40
69597;BMP180;56802;51.184;-115.558;2022-10-31T07:09:21;85318.20;;;5.40
69597;BMP180;56802;51.184;-115.558;2022-10-31T07:11:53;85313.00;;;5.50
69597;BMP180;56802;51.184;-115.558;2022-10-31T07:14:22;85316.40;;;5.50
69597;BMP180;56802;51.184;-115.558;2022-10-31T07:16:51;85312.60;;;5.50
69597;BMP180;56802;51.184;-115.558;2022-10-31T07:19:20;85316.80;;;5.40
69597;BMP180;56802;51.184;-115.558;2022-10-31T07:21:50;85312.80;;;5.40
69597;BMP180;56802;51.184;-115.558;2022-10-31T07:24:19;85315.40;;;5.30
69597;BMP180;56802;51.184;-115.558;2022-10-31T07:26:48;85330.40;;;5.30
69597;BMP180;56802;51.184;-115.558;2022-10-31T07:29:18;85331.40;;;5.28
69597;BMP180;56802;51.184;-115.558;2022-10-31T07:31:47;85324.00;;;5.20
69597;BMP180;56802;51.184;-115.558;2022-10-31T07:34:17;85320.20;;;5.20
69597;BMP180;56802;51.184;-115.558;2022-10-31T07:36:46;85321.80;;;5.20
69597;BMP180;56802;51.184;-115.558;2022-10-31T07:39:15;85315.20;;;5.20
69597;BMP180;56802;51.184;-115.558;2022-10-31T07:41:44;85307.80;;;5.10
69597;BMP180;56802;51.184;-115.558;2022-10-31T07:44:13;85320.40;;;5.10
69597;BMP180;56802;51.184;-115.558;2022-10-31T07:46:43;85329.20;;;5.10
69597;BMP180;56802;51.184;-115.558;2022-10-31T07:49:12;85327.00;;;5.10
69597;BMP180;56802;51.184;-115.558;2022-10-31T07:51:41;85328.60;;;5.12
69597;BMP180;56802;51.184;-115.558;2022-10-31T07:54:13;85314.00;;;5.12
69597;BMP180;56802;51.184;-115.558;2022-10-31T07:56:42;85313.00;;;5.18
69597;BMP180;56802;51.184;-115.558;2022-10-31T07:59:11;85320.00;;;5.20
69597;BMP180;56802;51.184;-115.558;2022-10-31T08:01:42;85316.20;;;5.20
69597;BMP180;56802;51.184;-115.558;2022-10-31T08:04:11;85322.20;;;5.20
69597;BMP180;56802;51.184;-115.558;2022-10-31T08:06:41;85325.40;;;5.20
69597;BMP180;56802;51.184;-115.558;2022-10-31T08:09:10;85322.00;;;5.24
69597;BMP180;56802;51.184;-115.558;2022-10-31T08:11:40;85324.20;;;5.20
69597;BMP180;56802;51.184;-115.558;2022-10-31T08:14:09;85313.40;;;5.20
69597;BMP180;56802;51.184;-115.558;2022-10-31T08:16:38;85318.80;;;5.20
69597;BMP180;56802;51.184;-115.558;2022-10-31T08:19:08;85323.60;;;5.20
69597;BMP180;56802;51.184;-115.558;2022-10-31T08:21:37;85316.80;;;5.16
69597;BMP180;56802;51.184;-115.558;2022-10-31T08:24:09;85318.60;;;5.12
69597;BMP180;56802;51.184;-115.558;2022-10-31T08:26:38;85315.60;;;5.10
69597;BMP180;56802;51.184;-115.558;2022-10-31T08:29:08;85304.20;;;5.10
69597;BMP180;56802;51.184;-115.558;2022-10-31T08:31:37;85309.80;;;5.10
69597;BMP180;56802;51.184;-115.558;2022-10-31T08:34:09;85315.20;;;5.10
69597;BMP180;56802;51.184;-115.558;2022-10-31T08:36:38;85311.60;;;5.10
69597;BMP180;56802;51.184;-115.558;2022-10-31T08:39:08;85323.80;;;5.10
69597;BMP180;56802;51.184;-115.558;2022-10-31T08:41:37;85327.00;;;5.10
69597;BMP180;56802;51.184;-115.558;2022-10-31T08:44:06;85323.20;;;5.06
69597;BMP180;56802;51.184;-115.558;2022-10-31T08:46:39;85326.40;;;5.10
69597;BMP180;56802;51.184;-115.558;2022-10-31T08:49:08;85321.40;;;5.10
69597;BMP180;56802;51.184;-115.558;2022-10-31T08:51:38;85321.40;;;5.10
69597;BMP180;56802;51.184;-115.558;2022-10-31T08:54:08;85322.60;;;5.10
69597;BMP180;56802;51.184;-115.558;2022-10-31T08:56:37;85317.80;;;5.10
69597;BMP180;56802;51.184;-115.558;2022-10-31T08:59:06;85314.80;;;5.10
69597;BMP180;56802;51.184;-115.558;2022-10-31T09:01:35;85322.80;;;5.08
69597;BMP180;56802;51.184;-115.558;2022-10-31T09:04:05;85326.20;;;5.00
69597;BMP180;56802;51.184;-115.558;2022-10-31T09:06:35;85308.80;;;5.00
69597;BMP180;56802;51.184;-115.558;2022-10-31T09:09:04;85312.60;;;5.00
69597;BMP180;56802;51.184;-115.558;2022-10-31T09:11:34;85311.40;;;5.00
69597;BMP180;56802;51.184;-115.558;2022-10-31T09:14:03;85313.00;;;5.00
69597;BMP180;56802;51.184;-115.558;2022-10-31T09:16:32;85311.40;;;5.00
69597;BMP180;56802;51.184;-115.558;2022-10-31T09:19:02;85318.80;;;4.90
69597;BMP180;56802;51.184;-115.558;2022-10-31T09:21:38;85315.60;;;4.90
69597;BMP180;56802;51.184;-115.558;2022-10-31T09:24:07;85320.60;;;5.00
69597;BMP180;56802;51.184;-115.558;2022-10-31T09:26:36;85317.80;;;5.00
69597;BMP180;56802;51.184;-115.558;2022-10-31T09:29:06;85316.80;;;5.10
69597;BMP180;56802;51.184;-115.558;2022-10-31T09:31:38;85310.00;;;5.10
69597;BMP180;56802;51.184;-115.558;2022-10-31T09:34:11;85308.80;;;5.10
69597;BMP180;56802;51.184;-115.558;2022-10-31T09:36:40;85307.40;;;5.10
69597;BMP180;56802;51.184;-115.558;2022-10-31T09:39:11;85304.60;;;5.10
69597;BMP180;56802;51.184;-115.558;2022-10-31T09:53:17;85307.00;;;5.02
69597;BMP180;56802;51.184;-115.558;2022-10-31T09:55:50;85311.20;;;5.08
69597;BMP180;56802;51.184;-115.558;2022-10-31T09:58:30;85293.00;;;5.10
69597;BMP180;56802;51.184;-115.558;2022-10-31T10:01:09;85295.60;;;5.08
69597;BMP180;56802;51.184;-115.558;2022-10-31T10:03:49;85304.80;;;5.00
69597;BMP180;56802;51.184;-115.558;2022-10-31T10:06:33;85303.00;;;5.00
69597;BMP180;56802;51.184;-115.558;2022-10-31T10:09:03;85297.60;;;5.00
69597;BMP180;56802;51.184;-115.558;2022-10-31T10:15:26;85302.80;;;5.00
69597;BMP180;56802;51.184;-115.558;2022-10-31T10:21:04;85307.00;;;4.90
69597;BMP180;56802;51.184;-115.558;2022-10-31T10:29:57;85309.40;;;4.80
69597;BMP180;56802;51.184;-115.558;2022-10-31T10:32:49;85292.80;;;4.80
69597;BMP180;56802;51.184;-115.558;2022-10-31T10:35:41;85299.80;;;4.86
69597;BMP180;56802;51.184;-115.558;2022-10-31T10:41:02;85294.60;;;4.90
69597;BMP180;56802;51.184;-115.558;2022-10-31T10:43:36;85297.00;;;4.90
69597;BMP180;56802;51.184;-115.558;2022-10-31T10:49:32;85285.00;;;4.90
69597;BMP180;56802;51.184;-115.558;2022-10-31T10:58:07;85304.40;;;4.88
69597;BMP180;56802;51.184;-115.558;2022-10-31T11:00:44;85303.00;;;4.90
69597;BMP180;56802;51.184;-115.558;2022-10-31T11:03:18;85298.40;;;4.82
69597;BMP180;56802;51.184;-115.558;2022-10-31T11:05:52;85299.40;;;4.80
69597;BMP180;56802;51.184;-115.558;2022-10-31T11:08:30;85291.40;;;4.80
69597;BMP180;56802;51.184;-115.558;2022-10-31T11:14:03;85286.60;;;4.80
69597;BMP180;56802;51.184;-115.558;2022-10-31T11:16:43;85279.20;;;4.80
69597;BMP180;56802;51.184;-115.558;2022-10-31T11:19:25;85279.60;;;4.80
69597;BMP180;56802;51.184;-115.558;2022-10-31T11:22:16;85272.80;;;4.80
69597;BMP180;56802;51.184;-115.558;2022-10-31T11:24:46;85272.60;;;4.80
69597;BMP180;56802;51.184;-115.558;2022-10-31T11:27:22;85277.80;;;4.80
69597;BMP180;56802;51.184;-115.558;2022-10-31T11:29:51;85283.20;;;4.80
69597;BMP180;56802;51.184;-115.558;2022-10-31T11:32:28;85277.20;;;4.72
69597;BMP180;56802;51.184;-115.558;2022-10-31T11:35:03;85268.60;;;4.70
69597;BMP180;56802;51.184;-115.558;2022-10-31T11:37:44;85265.60;;;4.70
69597;BMP180;56802;51.184;-115.558;2022-10-31T11:40:24;85267.40;;;4.70
69597;BMP180;56802;51.184;-115.558;2022-10-31T11:42:57;85252.80;;;4.80
69597;BMP180;56802;51.184;-115.558;2022-10-31T11:45:33;85243.20;;;4.80
69597;BMP180;56802;51.184;-115.558;2022-10-31T11:48:17;85257.80;;;4.80
69597;BMP180;56802;51.184;-115.558;2022-10-31T11:50:55;85260.40;;;4.80
69597;BMP180;56802;51.184;-115.558;2022-10-31T11:53:32;85255.00;;;4.80
69597;BMP180;56802;51.184;-115.558;2022-10-31T11:56:20;85242.20;;;4.70
69597;BMP180;56802;51.184;-115.558;2022-10-31T11:59:05;85238.80;;;4.80
69597;BMP180;56802;51.184;-115.558;2022-10-31T12:01:34;85241.60;;;4.80
69597;BMP180;56802;51.184;-115.558;2022-10-31T12:04:12;85236.00;;;4.70
69597;BMP180;56802;51.184;-115.558;2022-10-31T12:06:47;85246.20;;;4.70
69597;BMP180;56802;51.184;-115.558;2022-10-31T12:09:34;85245.80;;;4.70
69597;BMP180;56802;51.184;-115.558;2022-10-31T12:12:41;85254.80;;;4.70
69597;BMP180;56802;51.184;-115.558;2022-10-31T12:17:57;85248.20;;;4.70
69597;BMP180;56802;51.184;-115.558;2022-10-31T12:30:14;85222.60;;;4.70
69597;BMP180;56802;51.184;-115.558;2022-10-31T12:39:31;85218.40;;;4.60
69597;BMP180;56802;51.184;-115.558;2022-10-31T12:42:33;85218.20;;;4.60
69597;BMP180;56802;51.184;-115.558;2022-10-31T12:48:12;85222.80;;;4.58
69597;BMP180;56802;51.184;-115.558;2022-10-31T13:00:05;85232.20;;;4.62
69597;BMP180;56802;51.184;-115.558;2022-10-31T13:05:46;85231.00;;;4.70
69597;BMP180;56802;51.184;-115.558;2022-10-31T13:08:28;85217.60;;;4.70
69597;BMP180;56802;51.184;-115.558;2022-10-31T13:11:20;85219.00;;;4.70
69597;BMP180;56802;51.184;-115.558;2022-10-31T13:14:07;85223.20;;;4.70
69597;BMP180;56802;51.184;-115.558;2022-10-31T13:16:44;85221.40;;;4.70
69597;BMP180;56802;51.184;-115.558;2022-10-31T13:19:25;85207.20;;;4.70
69597;BMP180;56802;51.184;-115.558;2022-10-31T13:22:29;85203.40;;;4.68
69597;BMP180;56802;51.184;-115.558;2022-10-31T13:25:11;85222.20;;;4.70
69597;BMP180;56802;51.184;-115.558;2022-10-31T13:27:53;85226.40;;;4.70
69597;BMP180;56802;51.184;-115.558;2022-10-31T13:30:33;85225.60;;;4.72
69597;BMP180;56802;51.184;-115.558;2022-10-31T13:33:24;85234.20;;;4.80
69597;BMP180;56802;51.184;-115.558;2022-10-31T13:36:41;85244.40;;;4.80
69597;BMP180;56802;51.184;-115.558;2022-10-31T13:45:23;85240.20;;;4.80
69597;BMP180;56802;51.184;-115.558;2022-10-31T13:48:33;85228.80;;;4.80
69597;BMP180;56802;51.184;-115.558;2022-10-31T13:51:08;85233.00;;;4.80
69597;BMP180;56802;51.184;-115.558;2022-10-31T13:56:34;85212.00;;;4.80
69597;BMP180;56802;51.184;-115.558;2022-10-31T14:01:49;85219.00;;;4.80
69597;BMP180;56802;51.184;-115.558;2022-10-31T14:04:24;85215.60;;;4.80
69597;BMP180;56802;51.184;-115.558;2022-10-31T14:10:22;85225.00;;;4.80
69597;BMP180;56802;51.184;-115.558;2022-10-31T14:13:05;85218.80;;;4.70
69597;BMP180;56802;51.184;-115.558;2022-10-31T14:15:38;85215.60;;;4.60
69597;BMP180;56802;51.184;-115.558;2022-10-31T14:18:29;85204.00;;;4.60
69597;BMP180;56802;51.184;-115.558;2022-10-31T14:20:59;85222.00;;;4.60
69597;BMP180;56802;51.184;-115.558;2022-10-31T14:23:38;85221.20;;;4.60
69597;BMP180;56802;51.184;-115.558;2022-10-31T14:29:03;85223.40;;;4.60
69597;BMP180;56802;51.184;-115.558;2022-10-31T14:32:06;85212.00;;;4.60
69597;BMP180;56802;51.184;-115.558;2022-10-31T14:35:15;85208.60;;;4.60
69597;BMP180;56802;51.184;-115.558;2022-10-31T14:38:11;85209.20;;;4.60
69597;BMP180;56802;51.184;-115.558;2022-10-31T14:46:50;85201.60;;;4.50
69597;BMP180;56802;51.184;-115.558;2022-10-31T14:52:08;85195.80;;;4.50
69597;BMP180;56802;51.184;-115.558;2022-10-31T14:54:45;85199.40;;;4.40
69597;BMP180;56802;51.184;-115.558;2022-10-31T14:57:36;85196.00;;;4.30
69597;BMP180;56802;51.184;-115.558;2022-10-31T15:00:12;85195.20;;;4.30
69597;BMP180;56802;51.184;-115.558;2022-10-31T15:05:22;85199.60;;;4.20
69597;BMP180;56802;51.184;-115.558;2022-10-31T15:07:54;85203.60;;;4.10
69597;BMP180;56802;51.184;-115.558;2022-10-31T15:10:33;85209.20;;;4.10
69597;BMP180;56802;51.184;-115.558;2022-10-31T15:13:19;85200.20;;;4.10
69597;BMP180;56802;51.184;-115.558;2022-10-31T15:15:55;85202.20;;;4.10
69597;BMP180;56802;51.184;-115.558;2022-10-31T15:18:27;85205.60;;;4.10
69597;BMP180;56802;51.184;-115.558;2022-10-31T15:20:57;85197.00;;;4.04
69597;BMP180;56802;51.184;-115.558;2022-10-31T15:23:29;85206.60;;;4.00
69597;BMP180;56802;51.184;-115.558;2022-10-31T15:26:03;85210.60;;;4.00
69597;BMP180;56802;51.184;-115.558;2022-10-31T15:28:32;85204.80;;;4.00
69597;BMP180;56802;51.184;-115.558;2022-10-31T15:31:03;85214.80;;;4.10
69597;BMP180;56802;51.184;-115.558;2022-10-31T15:33:40;85217.20;;;4.10
69597;BMP180;56802;51.184;-115.558;2022-10-31T15:36:24;85208.20;;;4.10
69597;BMP180;56802;51.184;-115.558;2022-10-31T15:38:58;85207.20;;;4.06
69597;BMP180;56802;51.184;-115.558;2022-10-31T15:41:48;85206.20;;;4.00
69597;BMP180;56802;51.184;-115.558;2022-10-31T15:44:35;85202.20;;;4.00
69597;BMP180;56802;51.184;-115.558;2022-10-31T15:47:15;85199.80;;;4.00
69597;BMP180;56802;51.184;-115.558;2022-10-31T15:49:53;85200.00;;;4.00
69597;BMP180;56802;51.184;-115.558;2022-10-31T15:52:46;85197.40;;;4.04
69597;BMP180;56802;51.184;-115.558;2022-10-31T15:55:29;85198.20;;;4.04
69597;BMP180;56802;51.184;-115.558;2022-10-31T15:58:12;85201.40;;;4.04
69597;BMP180;56802;51.184;-115.558;2022-10-31T16:00:42;85197.40;;;4.00
69597;BMP180;56802;51.184;-115.558;2022-10-31T16:05:55;85190.00;;;4.10
69597;BMP180;56802;51.184;-115.558;2022-10-31T16:08:35;85180.60;;;4.10
69597;BMP180;56802;51.184;-115.558;2022-10-31T16:13:41;85184.80;;;4.20
69597;BMP180;56802;51.184;-115.558;2022-10-31T16:16:16;85193.00;;;4.20
69597;BMP180;56802;51.184;-115.558;2022-10-31T16:19:04;85186.00;;;4.30
69597;BMP180;56802;51.184;-115.558;2022-10-31T16:21:37;85189.40;;;4.30
69597;BMP180;56802;51.184;-115.558;2022-10-31T16:24:33;85185.60;;;4.30
69597;BMP180;56802;51.184;-115.558;2022-10-31T16:27:13;85176.80;;;4.32
69597;BMP180;56802;51.184;-115.558;2022-10-31T16:29:47;85178.80;;;4.40
69597;BMP180;56802;51.184;-115.558;2022-10-31T16:32:33;85182.60;;;4.40
69597;BMP180;56802;51.184;-115.558;2022-10-31T16:37:40;85182.80;;;4.40
69597;BMP180;56802;51.184;-115.558;2022-10-31T16:40:14;85188.60;;;4.50